createdAt,value
2018-08-23T00:00:36.331Z,99.70
2018-08-23T00:03:16.121Z,99.90
2018-08-23T00:05:55.359Z,99.90
2018-08-23T00:08:24.586Z,99.80
2018-08-23T00:10:54.062Z,99.90
2018-08-23T00:13:23.093Z,99.90
2018-08-23T00:15:51.855Z,99.90
2018-08-23T00:18:20.513Z,99.90
2018-08-23T00:20:49.228Z,99.90
2018-08-23T00:23:17.913Z,99.90
2018-08-23T00:25:46.609Z,99.90
2018-08-23T00:28:15.289Z,99.90
2018-08-23T00:30:44.346Z,99.90
2018-08-23T00:33:13.054Z,99.90
2018-08-23T00:35:41.721Z,99.90
2018-08-23T00:38:10.408Z,99.90
2018-08-23T00:40:42.234Z,99.90
2018-08-23T00:43:12.174Z,99.90
2018-08-23T00:45:40.821Z,99.90
2018-08-23T00:48:09.533Z,99.90
2018-08-23T00:50:56.959Z,99.90
2018-08-23T00:53:25.987Z,99.90
2018-08-23T00:56:10.462Z,99.90
2018-08-23T00:58:41.419Z,99.90
2018-08-23T01:01:13.018Z,99.90
2018-08-23T01:03:41.902Z,99.90
2018-08-23T01:06:10.589Z,99.90
2018-08-23T01:08:39.332Z,99.90
2018-08-23T01:11:09.178Z,99.90
2018-08-23T01:13:37.897Z,99.90
2018-08-23T01:16:06.558Z,99.90
2018-08-23T01:18:41.555Z,99.90
2018-08-23T01:21:11.035Z,99.90
2018-08-23T01:23:40.386Z,99.90
2018-08-23T01:26:09.492Z,99.90
2018-08-23T01:28:38.233Z,99.90
2018-08-23T01:31:23.554Z,99.90
2018-08-23T01:33:58.660Z,99.90
2018-08-23T01:36:31.266Z,99.90
2018-08-23T01:39:00.768Z,99.90
2018-08-23T01:41:29.401Z,99.90
2018-08-23T01:43:58.036Z,99.90
2018-08-23T01:46:30.888Z,99.90
2018-08-23T01:48:59.694Z,99.90
2018-08-23T01:51:28.367Z,99.90
2018-08-23T01:53:57.001Z,99.90
2018-08-23T01:56:25.665Z,99.90
2018-08-23T01:58:54.366Z,99.90
2018-08-23T02:01:23.095Z,99.90
2018-08-23T02:03:51.851Z,99.90
2018-08-23T02:06:20.591Z,99.90
2018-08-23T02:08:49.213Z,99.90
2018-08-23T02:11:17.890Z,99.90
2018-08-23T02:13:48.684Z,99.90
2018-08-23T02:16:17.333Z,99.90
2018-08-23T02:18:46.014Z,99.90
2018-08-23T02:21:14.673Z,99.90
2018-08-23T02:23:46.562Z,99.90
2018-08-23T02:26:15.412Z,99.90
2018-08-23T02:28:48.844Z,99.90
2018-08-23T02:31:17.837Z,99.90
2018-08-23T02:33:46.546Z,99.90
2018-08-23T02:36:18.591Z,99.90
2018-08-23T02:41:02.658Z,99.90
2018-08-23T02:43:31.355Z,99.90
2018-08-23T02:46:03.034Z,99.90
2018-08-23T02:48:31.719Z,99.90
2018-08-23T02:51:00.393Z,99.90
2018-08-23T02:53:35.147Z,99.90
2018-08-23T02:56:09.140Z,99.90
2018-08-23T02:59:06.108Z,99.90
2018-08-23T03:01:36.368Z,99.90
2018-08-23T03:04:12.840Z,99.90
2018-08-23T03:07:13.086Z,99.90
2018-08-23T03:09:43.618Z,99.90
2018-08-23T03:12:16.437Z,99.90
2018-08-23T03:14:45.138Z,99.90
2018-08-23T03:17:23.708Z,99.90
2018-08-23T03:20:02.025Z,99.90
2018-08-23T03:22:31.884Z,99.90
2018-08-23T03:25:02.572Z,99.90
2018-08-23T03:27:31.764Z,99.90
2018-08-23T03:30:01.230Z,99.90
2018-08-23T03:32:30.056Z,99.90
2018-08-23T03:34:59.338Z,99.90
2018-08-23T03:37:28.071Z,99.90
2018-08-23T03:39:56.908Z,99.90
2018-08-23T03:42:25.984Z,99.90
2018-08-23T03:44:55.615Z,99.90
2018-08-23T03:47:24.565Z,99.90
2018-08-23T03:49:53.258Z,99.90
2018-08-23T03:52:39.698Z,99.90
2018-08-23T03:55:09.400Z,99.90
2018-08-23T03:57:43.536Z,99.90
2018-08-23T04:00:12.301Z,99.90
2018-08-23T04:02:40.949Z,99.90
2018-08-23T04:05:14.971Z,99.90
2018-08-23T04:07:44.535Z,99.90
2018-08-23T04:10:13.192Z,99.90
2018-08-23T04:12:43.102Z,99.90
2018-08-23T04:15:29.526Z,99.90
2018-08-23T04:17:58.209Z,99.90
2018-08-23T04:20:27.000Z,99.90
2018-08-23T04:22:55.781Z,99.90
2018-08-23T04:25:24.460Z,99.90
2018-08-23T04:27:53.096Z,99.90
2018-08-23T04:30:21.806Z,99.90
2018-08-23T04:32:50.467Z,99.90
2018-08-23T04:35:34.787Z,99.90
2018-08-23T04:38:03.431Z,99.90
2018-08-23T04:40:32.163Z,99.90
2018-08-23T04:43:00.843Z,99.90
2018-08-23T04:45:31.514Z,99.90
2018-08-23T04:48:06.328Z,99.90
2018-08-23T04:50:35.193Z,99.90
2018-08-23T04:53:03.947Z,99.90
2018-08-23T04:55:32.608Z,99.90
2018-08-23T04:58:02.251Z,99.90
2018-08-23T05:00:31.348Z,99.90
2018-08-23T05:03:00.021Z,99.90
2018-08-23T05:05:28.711Z,99.90
2018-08-23T05:07:57.436Z,99.90
2018-08-23T05:10:26.156Z,99.90
2018-08-23T05:12:54.797Z,99.90
2018-08-23T05:15:23.500Z,99.90
2018-08-23T05:17:52.133Z,99.90
2018-08-23T05:20:20.804Z,99.90
2018-08-23T05:22:54.985Z,99.90
2018-08-23T05:25:24.249Z,99.90
2018-08-23T05:28:19.936Z,99.90
2018-08-23T05:30:49.372Z,99.90
2018-08-23T05:33:19.267Z,99.90
2018-08-23T05:35:48.123Z,99.90
2018-08-23T05:38:17.607Z,99.90
2018-08-23T05:40:51.065Z,99.90
2018-08-23T05:43:19.898Z,99.90
2018-08-23T05:45:49.969Z,99.90
2018-08-23T05:48:31.733Z,99.90
2018-08-23T05:51:07.690Z,99.90
2018-08-23T05:53:46.731Z,99.90
2018-08-23T05:56:15.540Z,99.90
2018-08-23T05:58:44.185Z,99.90
2018-08-23T06:01:12.921Z,99.90
2018-08-23T06:03:41.612Z,99.90
2018-08-23T06:06:10.344Z,99.90
2018-08-23T06:08:43.350Z,99.90
2018-08-23T06:11:14.748Z,99.90
2018-08-23T06:13:43.403Z,99.90
2018-08-23T06:16:12.074Z,99.90
2018-08-23T06:18:40.810Z,99.90
2018-08-23T06:21:09.460Z,99.90
2018-08-23T06:23:57.466Z,99.90
2018-08-23T06:26:41.340Z,99.90
2018-08-23T06:29:13.302Z,99.90
2018-08-23T06:31:50.367Z,99.90
2018-08-23T06:34:19.142Z,99.80
2018-08-23T06:36:47.969Z,99.00
2018-08-23T06:39:16.676Z,98.80
2018-08-23T06:41:45.565Z,98.20
2018-08-23T06:44:14.291Z,97.70
2018-08-23T06:46:43.086Z,97.00
2018-08-23T06:49:11.744Z,96.50
2018-08-23T06:51:40.940Z,95.40
2018-08-23T06:54:09.640Z,94.10
2018-08-23T06:56:38.835Z,92.80
2018-08-23T06:59:08.596Z,91.30
2018-08-23T07:01:42.533Z,89.30
2018-08-23T07:04:14.190Z,87.70
2018-08-23T07:06:43.041Z,87.00
2018-08-23T07:09:14.880Z,83.10
2018-08-23T07:11:43.829Z,79.80
2018-08-23T07:14:19.836Z,78.20
2018-08-23T07:16:49.841Z,77.10
2018-08-23T07:19:31.880Z,76.80
2018-08-23T07:22:02.466Z,74.70
2018-08-23T07:24:40.981Z,74.40
2018-08-23T07:27:10.933Z,72.20
2018-08-23T07:29:39.621Z,70.50
2018-08-23T07:32:09.762Z,68.90
2018-08-23T07:34:38.470Z,69.30
2018-08-23T07:37:12.336Z,69.50
2018-08-23T07:39:45.171Z,67.30
2018-08-23T07:42:13.842Z,66.30
2018-08-23T07:44:42.503Z,65.80
2018-08-23T07:47:11.106Z,62.90
2018-08-23T07:49:39.775Z,61.80
2018-08-23T07:52:08.517Z,60.10
2018-08-23T07:54:37.178Z,61.20
2018-08-23T07:57:05.819Z,61.40
2018-08-23T07:59:34.575Z,61.20
2018-08-23T08:02:03.385Z,61.60
2018-08-23T08:04:32.400Z,60.70
2018-08-23T08:07:01.322Z,60.10
2018-08-23T08:09:29.938Z,58.70
2018-08-23T08:12:00.505Z,58.30
2018-08-23T08:14:37.518Z,58.00
2018-08-23T08:17:13.507Z,57.50
2018-08-23T08:19:46.349Z,57.20
2018-08-23T08:22:15.368Z,55.70
2018-08-23T08:24:44.002Z,56.20
2018-08-23T08:27:12.803Z,56.50
2018-08-23T08:29:41.445Z,56.30
2018-08-23T08:32:11.606Z,55.80
2018-08-23T08:34:44.000Z,55.50
2018-08-23T08:37:13.169Z,56.10
2018-08-23T08:39:41.882Z,56.10
2018-08-23T08:42:10.537Z,57.30
2018-08-23T08:44:39.271Z,57.70
2018-08-23T08:47:07.937Z,57.60
2018-08-23T08:49:36.612Z,56.90
2018-08-23T08:52:05.320Z,55.70
2018-08-23T08:54:33.943Z,56.30
2018-08-23T08:57:02.642Z,56.50
2018-08-23T08:59:32.838Z,54.30
2018-08-23T09:02:01.706Z,55.60
2018-08-23T09:04:35.422Z,54.80
2018-08-23T09:07:04.183Z,55.10
2018-08-23T09:09:36.014Z,54.50
2018-08-23T09:12:12.324Z,54.40
2018-08-23T09:14:43.004Z,55.30
2018-08-23T09:17:28.113Z,53.30
2018-08-23T09:20:01.567Z,54.00
2018-08-23T09:22:35.505Z,54.00
2018-08-23T09:25:05.655Z,54.60
2018-08-23T09:27:34.338Z,54.40
2018-08-23T09:30:03.141Z,54.20
2018-08-23T09:32:31.854Z,54.70
2018-08-23T09:35:02.699Z,53.10
2018-08-23T09:37:36.449Z,52.70
2018-08-23T09:40:05.614Z,53.20
2018-08-23T09:42:35.318Z,53.00
2018-08-23T09:45:13.355Z,52.50
2018-08-23T09:47:42.165Z,52.30
2018-08-23T09:50:11.045Z,51.30
2018-08-23T09:52:44.841Z,51.20
2018-08-23T09:55:14.758Z,51.70
2018-08-23T09:57:43.913Z,52.50
2018-08-23T10:00:14.669Z,53.40
2018-08-23T10:02:48.596Z,55.10
2018-08-23T10:05:22.641Z,57.00
2018-08-23T10:07:56.494Z,56.70
2018-08-23T10:10:30.355Z,56.30
2018-08-23T10:13:04.400Z,57.50
2018-08-23T10:15:38.383Z,57.90
2018-08-23T10:18:12.356Z,57.60
2018-08-23T10:20:46.716Z,58.10
2018-08-23T10:23:20.763Z,57.40
2018-08-23T10:25:50.586Z,56.70
2018-08-23T10:28:20.542Z,58.10
2018-08-23T10:30:49.494Z,60.00
2018-08-23T10:33:18.534Z,59.50
2018-08-23T10:35:49.765Z,59.60
2018-08-23T10:38:19.969Z,59.90
2018-08-23T10:40:50.008Z,59.30
2018-08-23T10:43:24.028Z,59.20
2018-08-23T10:45:53.113Z,58.40
2018-08-23T10:48:21.759Z,58.30
2018-08-23T10:50:51.307Z,58.20
2018-08-23T10:53:20.074Z,58.50
2018-08-23T10:55:48.713Z,58.50
2018-08-23T10:58:17.404Z,59.50
2018-08-23T11:00:46.030Z,59.40
2018-08-23T11:03:14.794Z,58.40
2018-08-23T11:05:43.416Z,58.70
2018-08-23T11:08:17.168Z,58.20
2018-08-23T11:10:51.245Z,58.20
2018-08-23T11:13:25.204Z,59.70
2018-08-23T11:15:59.187Z,59.50
2018-08-23T11:18:33.067Z,60.00
2018-08-23T11:21:01.749Z,60.60
2018-08-23T11:23:30.461Z,61.30
2018-08-23T11:25:59.231Z,60.80
2018-08-23T11:28:28.108Z,61.10
2018-08-23T11:31:02.641Z,61.40
2018-08-23T11:33:31.556Z,61.40
2018-08-23T11:36:00.172Z,60.80
2018-08-23T11:38:29.668Z,61.10
2018-08-23T11:40:59.201Z,61.10
2018-08-23T11:43:27.885Z,62.00
2018-08-23T11:46:01.948Z,61.90
2018-08-23T11:48:31.162Z,61.30
2018-08-23T11:51:01.042Z,62.10
2018-08-23T11:53:30.169Z,61.70
2018-08-23T11:55:58.689Z,61.00
2018-08-23T11:58:27.536Z,60.10
2018-08-23T12:01:00.440Z,59.60
2018-08-23T12:03:29.073Z,58.80
2018-08-23T12:05:57.737Z,58.40
2018-08-23T12:08:26.352Z,58.50
2018-08-23T12:10:55.174Z,58.70
2018-08-23T12:13:23.880Z,58.70
2018-08-23T12:15:52.540Z,58.90
2018-08-23T12:18:21.214Z,58.40
2018-08-23T12:20:49.828Z,58.40
2018-08-23T12:23:18.542Z,58.50
2018-08-23T12:25:47.201Z,59.20
2018-08-23T12:28:21.246Z,59.70
2018-08-23T12:30:49.942Z,60.50
2018-08-23T12:33:18.616Z,59.80
2018-08-23T12:35:47.380Z,59.50
2018-08-23T12:38:22.245Z,58.90
2018-08-23T12:40:56.196Z,58.10
2018-08-23T12:43:30.219Z,59.20
2018-08-23T12:46:03.465Z,59.90
2018-08-23T12:48:32.113Z,60.00
2018-08-23T12:51:00.766Z,59.70
2018-08-23T12:53:30.325Z,60.40
2018-08-23T12:55:58.968Z,59.10
2018-08-23T12:58:27.624Z,59.50
2018-08-23T13:00:56.266Z,61.00
2018-08-23T13:03:24.946Z,61.20
2018-08-23T13:05:53.607Z,61.10
2018-08-23T13:08:22.305Z,62.20
2018-08-23T13:10:50.928Z,62.20
2018-08-23T13:13:19.590Z,62.40
2018-08-23T13:15:48.238Z,61.60
2018-08-23T13:18:16.907Z,62.30
2018-08-23T13:20:45.557Z,63.00
2018-08-23T13:23:14.204Z,62.20
2018-08-23T13:25:48.089Z,63.20
2018-08-23T13:28:16.759Z,60.50
2018-08-23T13:30:45.403Z,61.40
2018-08-23T13:33:14.092Z,60.40
2018-08-23T13:35:42.724Z,59.20
2018-08-23T13:38:11.376Z,59.00
2018-08-23T13:40:39.980Z,58.40
2018-08-23T13:43:08.680Z,57.30
2018-08-23T13:45:37.335Z,58.30
2018-08-23T13:48:06.132Z,58.60
2018-08-23T13:50:34.745Z,59.50
2018-08-23T13:53:03.437Z,59.20
2018-08-23T13:55:32.150Z,58.30
2018-08-23T13:58:00.897Z,57.70
2018-08-23T14:00:34.911Z,57.70
2018-08-23T14:03:03.622Z,58.00
2018-08-23T14:05:32.266Z,57.80
2018-08-23T14:08:00.883Z,58.00
2018-08-23T14:10:29.553Z,57.10
2018-08-23T14:12:58.201Z,57.30
2018-08-23T14:15:32.081Z,57.50
2018-08-23T14:18:00.768Z,57.50
2018-08-23T14:20:29.466Z,57.80
2018-08-23T14:22:58.094Z,58.60
2018-08-23T14:25:26.750Z,58.30
2018-08-23T14:27:55.482Z,58.80
2018-08-23T14:30:24.166Z,57.80
2018-08-23T14:32:52.811Z,57.40
2018-08-23T14:35:21.514Z,55.90
2018-08-23T14:37:50.156Z,54.70
2018-08-23T14:40:18.823Z,55.80
2018-08-23T14:42:47.534Z,56.50
2018-08-23T14:45:20.372Z,55.60
2018-08-23T14:47:54.215Z,56.20
2018-08-23T14:50:22.865Z,56.00
2018-08-23T14:52:51.509Z,55.80
2018-08-23T14:55:25.603Z,54.50
2018-08-23T14:57:54.249Z,54.10
2018-08-23T15:00:22.916Z,54.30
2018-08-23T15:02:51.604Z,54.80
2018-08-23T15:05:20.218Z,56.30
2018-08-23T15:07:48.927Z,54.70
2018-08-23T15:10:17.589Z,55.40
2018-08-23T15:12:46.253Z,57.10
2018-08-23T15:15:14.935Z,58.30
2018-08-23T15:17:43.582Z,58.80
2018-08-23T15:20:12.288Z,59.00
2018-08-23T15:22:41.007Z,59.00
2018-08-23T15:25:09.633Z,59.60
2018-08-23T15:27:38.250Z,58.80
2018-08-23T15:30:06.972Z,58.60
2018-08-23T15:32:35.640Z,58.60
2018-08-23T15:35:04.367Z,59.40
2018-08-23T15:37:33.033Z,59.30
2018-08-23T15:40:01.787Z,58.40
2018-08-23T15:42:30.542Z,58.80
2018-08-23T15:44:59.276Z,58.00
2018-08-23T15:47:27.960Z,58.30
2018-08-23T15:49:57.461Z,58.00
2018-08-23T15:52:26.375Z,58.40
2018-08-23T15:54:55.168Z,57.90
2018-08-23T15:57:23.783Z,58.40
2018-08-23T15:59:52.446Z,58.50
2018-08-23T16:04:49.793Z,58.90
2018-08-23T16:07:18.456Z,60.10
2018-08-23T16:09:47.233Z,60.10
2018-08-23T16:12:15.954Z,60.10
2018-08-23T16:14:44.686Z,60.10
2018-08-23T16:17:18.706Z,60.60
2018-08-23T16:19:52.787Z,61.50
2018-08-23T16:22:21.509Z,61.70
2018-08-23T16:24:50.213Z,62.70
2018-08-23T16:27:18.860Z,62.70
2018-08-23T16:29:49.826Z,63.00
2018-08-23T16:32:23.836Z,63.40
2018-08-23T16:34:52.624Z,63.40
2018-08-23T16:37:21.366Z,63.90
2018-08-23T16:39:50.047Z,63.70
2018-08-23T16:42:24.965Z,65.10
2018-08-23T16:44:53.629Z,65.20
2018-08-23T16:47:22.310Z,65.60
2018-08-23T16:49:50.945Z,65.30
2018-08-23T16:52:19.683Z,65.60
2018-08-23T16:54:48.365Z,66.30
2018-08-23T16:57:17.006Z,66.90
2018-08-23T16:59:45.836Z,66.50
2018-08-23T17:02:14.517Z,66.50
2018-08-23T17:04:45.228Z,67.00
2018-08-23T17:07:15.467Z,67.80
2018-08-23T17:09:44.308Z,68.20
2018-08-23T17:12:13.072Z,68.90
2018-08-23T17:14:42.384Z,69.40
2018-08-23T17:17:16.412Z,70.00
2018-08-23T17:19:45.238Z,70.00
2018-08-23T17:22:13.924Z,70.70
2018-08-23T17:24:42.706Z,71.40
2018-08-23T17:27:11.308Z,72.00
2018-08-23T17:29:40.026Z,72.10
2018-08-23T17:32:08.912Z,72.20
2018-08-23T17:34:37.589Z,73.30
2018-08-23T17:37:06.320Z,73.70
2018-08-23T17:39:35.071Z,73.90
2018-08-23T17:42:03.846Z,74.30
2018-08-23T17:44:32.844Z,74.80
2018-08-23T17:47:01.985Z,75.30
2018-08-23T17:49:30.989Z,75.50
2018-08-23T17:51:59.745Z,76.20
2018-08-23T17:54:28.457Z,76.40
2018-08-23T17:56:57.321Z,76.80
2018-08-23T17:59:26.031Z,77.10
2018-08-23T18:01:54.741Z,77.80
2018-08-23T18:04:23.388Z,78.40
2018-08-23T18:06:52.179Z,78.60
2018-08-23T18:09:20.840Z,79.30
2018-08-23T18:11:49.490Z,79.80
2018-08-23T18:14:18.298Z,80.40
2018-08-23T18:16:52.261Z,81.00
2018-08-23T18:19:20.970Z,81.40
2018-08-23T18:21:49.681Z,81.90
2018-08-23T18:24:18.357Z,82.40
2018-08-23T18:26:47.051Z,82.80
2018-08-23T18:29:15.748Z,83.20
2018-08-23T18:31:44.407Z,83.60
2018-08-23T18:34:13.153Z,84.00
2018-08-23T18:36:41.983Z,84.10
2018-08-23T18:39:11.298Z,84.00
2018-08-23T18:41:39.953Z,84.00
2018-08-23T18:44:08.642Z,84.10
2018-08-23T18:46:37.329Z,84.00
2018-08-23T18:49:06.001Z,84.10
2018-08-23T18:51:34.669Z,84.50
2018-08-23T18:54:03.448Z,84.70
2018-08-23T18:56:32.394Z,85.10
2018-08-23T18:59:01.484Z,85.30
2018-08-23T19:01:30.157Z,85.30
2018-08-23T19:03:58.877Z,85.50
2018-08-23T19:06:32.952Z,85.50
2018-08-23T19:09:01.647Z,86.10
2018-08-23T19:11:30.381Z,86.40
2018-08-23T19:13:59.122Z,86.70
2018-08-23T19:16:33.187Z,87.20
2018-08-23T19:19:02.028Z,87.80
2018-08-23T19:21:30.609Z,88.60
2018-08-23T19:23:59.420Z,90.00
2018-08-23T19:26:28.093Z,90.00
2018-08-23T19:28:56.806Z,90.30
2018-08-23T19:31:25.601Z,90.50
2018-08-23T19:33:54.306Z,90.70
2018-08-23T19:36:23.045Z,91.00
2018-08-23T19:38:51.712Z,91.30
2018-08-23T19:41:20.453Z,91.90
2018-08-23T19:43:49.251Z,92.10
2018-08-23T19:46:23.255Z,92.10
2018-08-23T19:48:57.262Z,92.70
2018-08-23T19:51:26.033Z,92.60
2018-08-23T19:53:54.862Z,93.00
2018-08-23T19:56:24.425Z,93.30
2018-08-23T19:58:55.649Z,93.50
2018-08-23T20:01:24.866Z,93.80
2018-08-23T20:03:53.738Z,93.90
2018-08-23T20:06:22.408Z,94.10
2018-08-23T20:08:51.128Z,93.90
2018-08-23T20:11:19.983Z,94.00
2018-08-23T20:13:48.740Z,93.60
2018-08-23T20:16:17.473Z,93.60
2018-08-23T20:18:46.747Z,93.90
2018-08-23T20:21:15.920Z,94.30
2018-08-23T20:23:45.102Z,94.20
2018-08-23T20:26:14.434Z,94.30
2018-08-23T20:28:43.745Z,94.60
2018-08-23T20:31:12.982Z,95.00
2018-08-23T20:33:42.174Z,94.90
2018-08-23T20:36:11.422Z,95.20
2018-08-23T20:38:40.091Z,95.00
2018-08-23T20:41:09.418Z,95.00
2018-08-23T20:43:38.666Z,95.50
2018-08-23T20:46:07.392Z,96.20
2018-08-23T20:48:36.108Z,95.60
2018-08-23T20:51:04.817Z,95.80
2018-08-23T20:53:33.822Z,96.20
2018-08-23T20:56:02.557Z,95.80
2018-08-23T20:58:31.390Z,95.70
2018-08-23T21:01:00.085Z,95.70
2018-08-23T21:03:28.773Z,95.80
2018-08-23T21:05:57.419Z,95.70
2018-08-23T21:08:26.119Z,95.60
2018-08-23T21:10:55.394Z,95.60
2018-08-23T21:13:24.240Z,95.90
2018-08-23T21:15:52.975Z,96.20
2018-08-23T21:18:23.897Z,96.30
2018-08-23T21:20:52.860Z,96.50
2018-08-23T21:23:21.540Z,96.70
2018-08-23T21:25:50.284Z,97.20
2018-08-23T21:28:19.292Z,97.10
2018-08-23T21:30:48.059Z,96.40
2018-08-23T21:33:16.759Z,96.20
2018-08-23T21:35:45.544Z,96.20
2018-08-23T21:38:15.714Z,96.40
2018-08-23T21:40:44.413Z,96.50
2018-08-23T21:43:13.069Z,97.10
2018-08-23T21:45:41.782Z,96.60
2018-08-23T21:48:10.545Z,96.60
2018-08-23T21:50:39.572Z,96.80
2018-08-23T21:53:08.421Z,97.50
2018-08-23T21:55:39.323Z,97.60
2018-08-23T21:58:09.710Z,97.40
2018-08-23T22:00:43.855Z,97.20
2018-08-23T22:03:13.381Z,97.30
2018-08-23T22:05:42.385Z,97.30
2018-08-23T22:08:11.804Z,96.90
2018-08-23T22:10:40.457Z,96.60
2018-08-23T22:13:09.154Z,96.30
2018-08-23T22:15:43.092Z,96.10
2018-08-23T22:18:12.090Z,96.20
2018-08-23T22:20:40.829Z,96.10
2018-08-23T22:23:09.775Z,96.10
2018-08-23T22:25:38.950Z,96.10
2018-08-23T22:28:08.136Z,96.10
2018-08-23T22:30:37.121Z,96.10
2018-08-23T22:33:06.038Z,95.90
2018-08-23T22:35:34.750Z,95.80
2018-08-23T22:38:03.421Z,95.70
2018-08-23T22:40:32.089Z,95.70
2018-08-23T22:43:00.772Z,95.60
2018-08-23T22:45:29.414Z,95.50
2018-08-23T22:47:58.085Z,95.50
2018-08-23T22:50:26.718Z,95.40
2018-08-23T22:52:55.488Z,95.30
2018-08-23T22:55:24.172Z,95.20
2018-08-23T22:57:52.869Z,95.20
2018-08-23T23:00:26.816Z,95.20
2018-08-23T23:02:55.550Z,95.20
2018-08-23T23:05:24.258Z,95.10
2018-08-23T23:07:52.891Z,95.00
2018-08-23T23:10:21.525Z,94.90
2018-08-23T23:12:50.226Z,94.80
2018-08-23T23:15:24.251Z,94.80
2018-08-23T23:17:52.881Z,94.70
2018-08-23T23:20:21.548Z,94.60
2018-08-23T23:22:50.187Z,94.60
2018-08-23T23:25:18.898Z,94.50
2018-08-23T23:27:47.575Z,94.50
2018-08-23T23:30:16.211Z,94.40
2018-08-23T23:32:45.173Z,94.00
2018-08-23T23:35:13.808Z,93.70
2018-08-23T23:37:42.491Z,93.50
2018-08-23T23:40:11.124Z,93.40
2018-08-23T23:42:39.830Z,93.20
2018-08-23T23:45:09.041Z,93.20
2018-08-23T23:47:37.748Z,93.90
2018-08-23T23:50:06.961Z,94.60
2018-08-23T23:52:35.636Z,95.60
2018-08-23T23:55:04.424Z,96.50
2018-08-23T23:57:33.090Z,97.00
